Current Weather

Kbely

Kbely, Czechia (LKKB)

Report from: Sunday, April 21, 2024 8:00 PM UTC
Current time: Sunday, April 21, 2024 8:26 PM UTC

Nearby weather – Weather history – Daily summaries
Weather forecast

Temperature2.0°C (35.6°F)
Wind chill-0.2°C (31.7°F)
Dew point-4.0°C (24.8°F)
Winds 4 kts (2.1 m/s, 4.6 mph) Vrb
Winds variableWinds variable from Northwest (320°) to North-Northeast (20°)
Clouds Sky clear
Altimeter30.15 in.Hg (1021 mB)
Relative humidity64 %
Density altitude-1,773 ft. (-541 m)
Remarks Ceiling and visibility OK
No significant changes expected in the next two hours
Flight conditions Visual Meteorological Conditions
Raw dataLKKB 212000Z 35004KT 320V020 CAVOK 02/M04 Q1021 NOSIG
An error has occurred. This application may no longer respond until reloaded. Reload 🗙